createdAt,value
2019-02-25T00:02:01.742Z,103998.29
2019-02-25T00:04:33.663Z,103998.44
2019-02-25T00:07:05.925Z,103997.08
2019-02-25T00:09:37.857Z,103988.67
2019-02-25T00:12:09.780Z,103988.81
2019-02-25T00:14:41.707Z,103992.25
2019-02-25T00:17:13.637Z,103992.89
2019-02-25T00:19:45.589Z,103992.55
2019-02-25T00:22:17.516Z,103995.15
2019-02-25T00:24:49.455Z,103991.64
2019-02-25T00:27:21.365Z,103987.89
2019-02-25T00:29:53.304Z,103982.80
2019-02-25T00:32:25.238Z,103983.12
2019-02-25T00:34:57.157Z,103978.64
2019-02-25T00:37:29.108Z,103977.57
2019-02-25T00:40:01.031Z,103977.24
2019-02-25T00:42:32.956Z,103976.75
2019-02-25T00:45:09.329Z,103975.92
2019-02-25T00:47:41.287Z,103969.06
2019-02-25T00:50:19.831Z,103964.83
2019-02-25T00:52:51.818Z,103962.47
2019-02-25T00:55:23.745Z,103959.13
2019-02-25T00:57:55.682Z,103964.31
2019-02-25T01:00:27.770Z,103965.92
2019-02-25T01:02:59.699Z,103962.03
2019-02-25T01:05:31.731Z,103967.14
2019-02-25T01:08:04.417Z,103970.16
2019-02-25T01:10:36.369Z,103967.55
2019-02-25T01:13:10.312Z,103970.48
2019-02-25T01:15:42.524Z,103975.69
2019-02-25T01:18:14.451Z,103979.09
2019-02-25T01:20:46.377Z,103992.48
2019-02-25T01:23:18.784Z,103992.56
2019-02-25T01:25:55.119Z,103993.74
2019-02-25T01:28:27.069Z,103998.39
2019-02-25T01:30:58.987Z,103992.69
2019-02-25T01:33:31.009Z,103985.78
2019-02-25T01:36:03.130Z,103989.35
2019-02-25T01:38:35.220Z,103986.98
2019-02-25T01:41:07.425Z,103985.50
2019-02-25T01:43:39.379Z,103975.52
2019-02-25T01:46:11.474Z,103971.03
2019-02-25T01:48:43.990Z,103974.43
2019-02-25T01:51:15.979Z,103971.98
2019-02-25T01:53:48.098Z,103973.38
2019-02-25T01:56:20.033Z,103974.57
2019-02-25T01:58:57.798Z,103973.91
2019-02-25T02:01:29.727Z,103965.78
2019-02-25T02:04:01.671Z,103975.68
2019-02-25T02:06:33.601Z,103976.64
2019-02-25T02:09:08.530Z,103969.15
2019-02-25T02:11:40.458Z,103975.51
2019-02-25T02:14:12.391Z,103969.41
2019-02-25T02:16:44.746Z,103966.39
2019-02-25T02:19:16.676Z,103964.59
2019-02-25T02:21:48.702Z,103969.63
2019-02-25T02:24:20.657Z,103970.70
2019-02-25T02:26:52.589Z,103968.86
2019-02-25T02:29:24.521Z,103960.22
2019-02-25T02:31:56.439Z,103962.83
2019-02-25T02:34:28.374Z,103966.17
2019-02-25T02:37:00.298Z,103960.66
2019-02-25T02:39:32.258Z,103961.00
2019-02-25T02:42:16.145Z,103967.36
2019-02-25T02:44:53.546Z,103964.61
2019-02-25T02:47:33.774Z,103965.32
2019-02-25T02:50:19.305Z,103970.94
2019-02-25T02:52:51.560Z,103971.77
2019-02-25T02:55:23.588Z,103964.48
2019-02-25T02:57:55.517Z,103956.53
2019-02-25T03:00:27.439Z,103955.31
2019-02-25T03:02:59.354Z,103959.30
2019-02-25T03:05:31.287Z,103962.41
2019-02-25T03:08:04.932Z,103962.18
2019-02-25T03:10:36.937Z,103956.19
2019-02-25T03:13:08.869Z,103946.53
2019-02-25T03:15:42.499Z,103935.16
2019-02-25T03:18:14.459Z,103936.16
2019-02-25T03:20:46.380Z,103935.83
2019-02-25T03:23:18.312Z,103943.55
2019-02-25T03:25:50.235Z,103941.86
2019-02-25T03:28:22.179Z,103934.63
2019-02-25T03:30:54.105Z,103934.71
2019-02-25T03:33:26.464Z,103927.29
2019-02-25T03:35:58.390Z,103926.31
2019-02-25T03:38:30.600Z,103924.31
2019-02-25T03:41:02.534Z,103931.22
2019-02-25T03:43:34.455Z,103935.60
2019-02-25T03:46:06.394Z,103937.38
2019-02-25T03:48:38.313Z,103938.52
2019-02-25T03:51:12.051Z,103938.59
2019-02-25T03:53:43.951Z,103936.95
2019-02-25T03:56:16.182Z,103947.10
2019-02-25T03:58:48.174Z,103952.62
2019-02-25T04:01:20.104Z,103959.13
2019-02-25T04:03:52.037Z,103954.41
2019-02-25T04:06:25.632Z,103955.14
2019-02-25T04:08:57.621Z,103947.98
2019-02-25T04:11:29.545Z,103947.16
2019-02-25T04:14:01.474Z,103948.61
2019-02-25T04:16:33.756Z,103939.48
2019-02-25T04:19:05.684Z,103944.52
2019-02-25T04:21:37.627Z,103941.09
2019-02-25T04:24:09.561Z,103941.41
2019-02-25T04:26:41.501Z,103940.63
2019-02-25T04:29:13.436Z,103940.77
2019-02-25T04:31:45.355Z,103944.67
2019-02-25T04:34:17.429Z,103944.19
2019-02-25T04:36:49.359Z,103940.20
2019-02-25T04:39:21.284Z,103945.23
2019-02-25T04:41:53.213Z,103947.99
2019-02-25T04:44:25.138Z,103949.28
2019-02-25T04:46:57.335Z,103960.48
2019-02-25T04:49:29.348Z,103966.89
2019-02-25T04:52:01.265Z,103968.50
2019-02-25T04:54:33.216Z,103970.78
2019-02-25T04:57:05.309Z,103974.27
2019-02-25T04:59:38.800Z,103972.96
2019-02-25T05:02:10.735Z,103977.26
2019-02-25T05:04:42.688Z,103980.59
2019-02-25T05:07:14.881Z,103979.22
2019-02-25T05:09:46.864Z,103983.03
2019-02-25T05:12:19.187Z,103978.80
2019-02-25T05:14:51.371Z,103976.11
2019-02-25T05:17:23.317Z,103977.56
2019-02-25T05:19:55.701Z,103987.78
2019-02-25T05:22:27.655Z,103987.52
2019-02-25T05:24:59.586Z,103991.01
2019-02-25T05:27:31.573Z,103994.93
2019-02-25T05:30:05.951Z,103997.36
2019-02-25T05:32:38.136Z,103992.14
2019-02-25T05:35:12.653Z,104001.23
2019-02-25T05:37:45.280Z,103990.78
2019-02-25T05:40:19.053Z,103992.30
2019-02-25T05:42:51.033Z,103988.00
2019-02-25T05:45:23.031Z,103989.36
2019-02-25T05:47:55.328Z,103994.05
2019-02-25T05:50:27.315Z,103991.79
2019-02-25T05:52:59.256Z,103996.63
2019-02-25T05:55:31.558Z,103999.91
2019-02-25T05:58:03.511Z,103998.18
2019-02-25T06:00:36.507Z,103994.28
2019-02-25T06:03:08.819Z,103996.58
2019-02-25T06:05:40.743Z,103994.95
2019-02-25T06:08:12.865Z,103988.38
2019-02-25T06:10:44.788Z,103989.67
2019-02-25T06:13:16.743Z,103992.25
2019-02-25T06:15:51.298Z,103990.95
2019-02-25T06:18:22.982Z,103994.62
2019-02-25T06:20:54.906Z,104000.23
2019-02-25T06:23:26.908Z,103995.30
2019-02-25T06:25:58.854Z,103992.31
2019-02-25T06:28:31.157Z,103990.06
2019-02-25T06:31:03.116Z,103996.95
2019-02-25T06:33:35.074Z,103996.89
2019-02-25T06:36:07.010Z,103996.66
2019-02-25T06:38:38.949Z,104001.37
2019-02-25T06:41:10.931Z,104009.46
2019-02-25T06:43:42.938Z,104020.03
2019-02-25T06:46:14.938Z,104007.93
2019-02-25T06:48:46.867Z,104019.50
2019-02-25T06:51:18.794Z,104022.03
2019-02-25T06:53:50.735Z,104021.56
2019-02-25T06:56:22.660Z,104029.95
2019-02-25T06:58:54.607Z,104033.63
2019-02-25T07:01:26.534Z,104029.91
2019-02-25T07:04:18.336Z,104021.62
2019-02-25T07:06:51.902Z,104019.52
2019-02-25T07:09:31.253Z,104018.73
2019-02-25T07:12:08.079Z,104009.61
2019-02-25T07:14:44.649Z,104014.10
2019-02-25T07:17:23.901Z,104002.98
2019-02-25T07:20:06.407Z,104012.42
2019-02-25T07:22:45.744Z,104023.81
2019-02-25T07:25:22.269Z,104024.19
2019-02-25T07:28:11.847Z,104028.35
2019-02-25T07:30:51.371Z,104028.37
2019-02-25T07:33:44.942Z,104022.61
2019-02-25T07:36:27.411Z,104020.80
2019-02-25T07:39:00.989Z,104017.66
2019-02-25T07:41:38.221Z,104019.63
2019-02-25T07:44:11.891Z,104024.81
2019-02-25T07:46:45.777Z,104026.21
2019-02-25T07:49:22.973Z,104024.19
2019-02-25T07:51:56.558Z,104024.36
2019-02-25T07:54:42.342Z,104026.66
2019-02-25T07:57:16.301Z,104019.73
2019-02-25T07:59:55.799Z,104027.23
2019-02-25T08:02:32.706Z,103980.11
2019-02-25T08:05:07.214Z,104031.55
2019-02-25T08:07:44.143Z,104035.77
2019-02-25T08:10:20.406Z,104039.86
2019-02-25T08:12:57.149Z,104039.52
2019-02-25T08:15:33.378Z,104041.00
2019-02-25T08:18:07.017Z,104044.33
2019-02-25T08:20:46.771Z,104040.20
2019-02-25T08:23:38.701Z,104049.30
2019-02-25T08:26:15.214Z,104049.57
2019-02-25T08:28:51.434Z,104055.41
2019-02-25T08:31:41.208Z,104052.16
2019-02-25T08:34:20.840Z,104044.28
2019-02-25T08:37:19.532Z,104039.30
2019-02-25T08:40:16.208Z,104041.34
2019-02-25T08:42:48.329Z,104035.64
2019-02-25T08:45:24.692Z,104024.42
2019-02-25T08:48:04.400Z,104021.95
2019-02-25T08:50:36.343Z,104022.45
2019-02-25T08:53:08.275Z,104017.95
2019-02-25T08:55:40.595Z,104010.03
2019-02-25T08:58:12.539Z,103997.66
2019-02-25T09:00:44.905Z,104003.66
2019-02-25T09:03:16.871Z,104005.41
2019-02-25T09:05:48.800Z,104021.02
2019-02-25T09:08:20.729Z,104017.84
2019-02-25T09:10:52.850Z,104021.34
2019-02-25T09:13:24.777Z,104016.54
2019-02-25T09:15:56.712Z,104017.27
2019-02-25T09:18:28.973Z,104012.87
2019-02-25T09:21:00.964Z,104022.24
2019-02-25T09:23:33.025Z,104014.42
2019-02-25T09:26:05.024Z,104009.98
2019-02-25T09:28:36.971Z,103996.63
2019-02-25T09:31:09.509Z,103995.44
2019-02-25T09:33:41.732Z,103997.80
2019-02-25T09:36:13.665Z,103989.16
2019-02-25T09:38:45.614Z,103989.44
2019-02-25T09:41:17.869Z,103984.41
2019-02-25T09:43:49.800Z,103989.58
2019-02-25T09:46:21.719Z,103992.34
2019-02-25T09:48:53.695Z,103999.98
2019-02-25T09:51:25.651Z,104000.09
2019-02-25T09:53:57.576Z,103996.56
2019-02-25T09:56:29.503Z,103995.69
2019-02-25T09:59:01.439Z,103984.58
2019-02-25T10:01:33.399Z,103985.91
2019-02-25T10:04:05.339Z,103984.12
2019-02-25T10:06:37.335Z,103988.70
2019-02-25T10:09:09.267Z,103996.26
2019-02-25T10:11:41.217Z,103986.40
2019-02-25T10:14:13.144Z,103991.39
2019-02-25T10:16:45.112Z,103986.89
2019-02-25T10:19:17.021Z,103985.47
2019-02-25T10:21:48.955Z,103983.98
2019-02-25T10:24:20.893Z,103984.15
2019-02-25T10:26:53.219Z,103983.30
2019-02-25T10:29:25.174Z,103968.77
2019-02-25T10:31:57.099Z,103972.67
2019-02-25T10:34:29.060Z,103969.94
2019-02-25T10:37:01.116Z,103968.05
2019-02-25T10:39:33.048Z,103962.30
2019-02-25T10:42:04.980Z,103955.95
2019-02-25T10:44:38.253Z,103952.00
2019-02-25T10:47:10.955Z,103946.59
2019-02-25T10:49:44.171Z,103935.57
2019-02-25T10:52:17.271Z,103935.82
2019-02-25T10:54:51.516Z,103933.80
2019-02-25T10:57:24.538Z,103934.04
2019-02-25T10:59:57.487Z,103924.02
2019-02-25T11:02:29.655Z,103921.50
2019-02-25T11:05:01.597Z,103917.23
2019-02-25T11:07:34.924Z,103930.17
2019-02-25T11:10:11.993Z,103924.31
2019-02-25T11:12:45.091Z,103920.70
2019-02-25T11:15:17.099Z,103917.81
2019-02-25T11:17:49.746Z,103909.43
2019-02-25T11:20:22.705Z,103912.53
2019-02-25T11:22:54.637Z,103909.58
2019-02-25T11:25:28.493Z,103913.64
2019-02-25T11:28:00.567Z,103907.12
2019-02-25T11:30:32.582Z,103900.61
2019-02-25T11:33:04.669Z,103905.06
2019-02-25T11:35:38.791Z,103904.77
2019-02-25T11:38:10.248Z,103891.34
2019-02-25T11:40:42.492Z,103889.75
2019-02-25T11:43:16.628Z,103894.90
2019-02-25T11:45:48.667Z,103907.47
2019-02-25T11:48:22.557Z,103905.54
2019-02-25T11:50:54.239Z,103908.29
2019-02-25T11:53:26.500Z,103907.19
2019-02-25T11:56:00.866Z,103902.56
2019-02-25T11:58:37.126Z,103895.34
2019-02-25T12:01:09.207Z,103893.66
2019-02-25T12:03:41.481Z,103887.59
2019-02-25T12:06:13.668Z,103884.68
2019-02-25T12:08:45.762Z,103879.98
2019-02-25T12:11:17.768Z,103878.88
2019-02-25T12:13:49.728Z,103874.48
2019-02-25T12:16:21.803Z,103874.44
2019-02-25T12:18:53.825Z,103872.90
2019-02-25T12:21:26.199Z,103868.31
2019-02-25T12:23:58.148Z,103857.04
2019-02-25T12:26:30.230Z,103854.98
2019-02-25T12:29:10.575Z,103852.16
2019-02-25T12:31:35.788Z,103849.45
2019-02-25T12:34:07.728Z,103849.21
2019-02-25T12:36:39.666Z,103836.17
2019-02-25T12:39:11.597Z,103836.23
2019-02-25T12:41:43.580Z,103841.83
2019-02-25T12:44:15.518Z,103795.14
2019-02-25T12:46:48.377Z,103839.34
2019-02-25T12:49:20.347Z,103838.31
2019-02-25T12:51:52.285Z,103849.94
2019-02-25T12:54:24.220Z,103837.34
2019-02-25T12:56:56.158Z,103835.63
2019-02-25T12:59:28.127Z,103830.55
2019-02-25T13:02:00.084Z,103831.27
2019-02-25T13:04:32.119Z,103822.29
2019-02-25T13:07:04.336Z,103824.50
2019-02-25T13:09:36.306Z,103822.63
2019-02-25T13:12:08.533Z,103824.44
2019-02-25T13:14:40.647Z,103824.23
2019-02-25T13:17:12.584Z,103823.92
2019-02-25T13:19:44.647Z,103824.23
2019-02-25T13:22:16.599Z,103823.78
2019-02-25T13:24:49.007Z,103823.74
2019-02-25T13:27:21.075Z,103818.94
2019-02-25T13:29:53.923Z,103817.14
2019-02-25T13:32:26.218Z,103821.59
2019-02-25T13:34:58.163Z,103824.61
2019-02-25T13:37:30.871Z,103825.31
2019-02-25T13:40:03.025Z,103824.52
2019-02-25T13:42:34.948Z,103825.03
2019-02-25T13:45:14.614Z,103817.32
2019-02-25T13:47:46.650Z,103817.89
2019-02-25T13:50:19.742Z,103807.88
2019-02-25T13:52:51.683Z,103808.63
2019-02-25T13:55:23.876Z,103805.72
2019-02-25T13:57:57.638Z,103803.84
2019-02-25T14:00:29.849Z,103799.30
2019-02-25T14:03:03.346Z,103802.45
2019-02-25T14:05:36.874Z,103802.91
2019-02-25T14:08:08.891Z,103810.70
2019-02-25T14:10:41.122Z,103811.45
2019-02-25T14:13:13.189Z,103802.09
2019-02-25T14:15:45.448Z,103803.75
2019-02-25T14:18:18.104Z,103805.45
2019-02-25T14:20:50.095Z,103807.55
2019-02-25T14:23:22.441Z,103806.07
2019-02-25T14:25:54.585Z,103809.50
2019-02-25T14:28:26.629Z,103807.20
2019-02-25T14:30:59.304Z,103802.37
2019-02-25T14:33:35.635Z,103797.52
2019-02-25T14:36:05.040Z,103742.16
2019-02-25T14:38:37.299Z,103795.14
2019-02-25T14:41:11.714Z,103788.27
2019-02-25T14:43:47.043Z,103788.48
2019-02-25T14:46:21.439Z,103784.00
2019-02-25T14:48:51.111Z,103775.50
2019-02-25T14:51:23.053Z,103772.44
2019-02-25T14:53:55.048Z,103763.30
2019-02-25T14:56:27.133Z,103758.13
2019-02-25T14:59:00.622Z,103766.00
2019-02-25T15:01:32.839Z,103770.64
2019-02-25T15:04:06.479Z,103766.80
2019-02-25T15:06:38.700Z,103759.39
2019-02-25T15:09:12.506Z,103764.44
2019-02-25T15:11:44.801Z,103765.34
2019-02-25T15:14:17.082Z,103767.22
2019-02-25T15:16:50.100Z,103763.22
2019-02-25T15:19:22.925Z,103772.37
2019-02-25T15:21:56.445Z,103771.87
2019-02-25T15:24:29.165Z,103766.66
2019-02-25T15:27:02.391Z,103761.80
2019-02-25T15:29:37.042Z,103764.25
2019-02-25T15:32:09.152Z,103775.75
2019-02-25T15:34:41.169Z,103772.33
2019-02-25T15:37:13.971Z,103770.01
2019-02-25T15:39:46.553Z,103772.41
2019-02-25T15:42:19.138Z,103775.45
2019-02-25T15:44:51.785Z,103769.88
2019-02-25T15:47:24.813Z,103771.37
2019-02-25T15:49:59.769Z,103769.75
2019-02-25T15:52:39.679Z,103763.89
2019-02-25T15:55:08.809Z,103768.63
2019-02-25T15:57:40.764Z,103772.31
2019-02-25T16:00:23.235Z,103770.34
2019-02-25T16:02:56.993Z,103770.66
2019-02-25T16:05:31.979Z,103769.54
2019-02-25T16:08:05.358Z,103763.24
2019-02-25T16:10:37.379Z,103754.92
2019-02-25T16:13:13.978Z,103753.51
2019-02-25T16:15:43.433Z,103756.62
2019-02-25T16:18:15.448Z,103754.39
2019-02-25T16:20:47.514Z,103756.77
2019-02-25T16:23:20.143Z,103754.04
2019-02-25T16:25:53.204Z,103761.86
2019-02-25T16:28:26.170Z,103761.36
2019-02-25T16:30:58.133Z,103768.84
2019-02-25T16:33:30.795Z,103757.05
2019-02-25T16:36:05.626Z,103754.86
2019-02-25T16:38:37.497Z,103752.44
2019-02-25T16:41:10.262Z,103756.48
2019-02-25T16:43:42.416Z,103762.99
2019-02-25T16:46:16.221Z,103772.66
2019-02-25T16:48:50.617Z,103769.43
2019-02-25T16:51:23.575Z,103755.60
2019-02-25T16:53:55.814Z,103766.43
2019-02-25T16:56:27.821Z,103760.77
2019-02-25T16:59:00.231Z,103760.30
2019-02-25T17:01:34.406Z,103769.50
2019-02-25T17:04:05.950Z,103761.63
2019-02-25T17:06:39.470Z,103762.80
2019-02-25T17:09:18.228Z,103766.77
2019-02-25T17:11:51.241Z,103755.16
2019-02-25T17:14:23.983Z,103761.32
2019-02-25T17:16:57.420Z,103767.91
2019-02-25T17:19:29.824Z,103773.19
2019-02-25T17:22:02.437Z,103775.27
2019-02-25T17:24:37.061Z,103775.56
2019-02-25T17:27:11.818Z,103775.60
2019-02-25T17:29:43.756Z,103764.55
2019-02-25T17:32:16.678Z,103765.80
2019-02-25T17:34:49.340Z,103768.69
2019-02-25T17:37:21.297Z,103762.35
2019-02-25T17:39:54.434Z,103770.27
2019-02-25T17:42:28.580Z,103768.00
2019-02-25T17:45:02.534Z,103775.20
2019-02-25T17:47:35.181Z,103766.97
2019-02-25T17:50:14.998Z,103763.77
2019-02-25T17:52:47.081Z,103758.81
2019-02-25T17:55:22.194Z,103765.69
2019-02-25T17:57:55.953Z,103773.06
2019-02-25T18:00:38.830Z,103769.89
2019-02-25T18:03:09.885Z,103765.37
2019-02-25T18:05:43.205Z,103763.83
2019-02-25T18:08:15.562Z,103760.98
2019-02-25T18:10:54.049Z,103757.33
2019-02-25T18:13:26.394Z,103754.41
2019-02-25T18:15:59.699Z,103749.50
2019-02-25T18:18:31.629Z,103744.05
2019-02-25T18:21:03.922Z,103753.62
2019-02-25T18:23:36.332Z,103753.56
2019-02-25T18:26:09.205Z,103759.38
2019-02-25T18:28:41.726Z,103761.27
2019-02-25T18:31:14.792Z,103754.50
2019-02-25T18:33:48.448Z,103746.72
2019-02-25T18:36:21.918Z,103740.87
2019-02-25T18:38:54.847Z,103749.29
2019-02-25T18:41:28.118Z,103753.91
2019-02-25T18:44:00.796Z,103752.55
2019-02-25T18:46:33.079Z,103754.66
2019-02-25T18:49:07.274Z,103755.49
2019-02-25T18:51:39.516Z,103757.88
2019-02-25T18:54:11.596Z,103757.23
2019-02-25T18:56:44.634Z,103751.92
2019-02-25T18:59:17.948Z,103742.95
2019-02-25T19:01:51.972Z,103747.93
2019-02-25T19:04:24.125Z,103752.29
2019-02-25T19:06:57.655Z,103756.23
2019-02-25T19:09:29.787Z,103751.76
2019-02-25T19:12:02.058Z,103746.80
2019-02-25T19:14:34.419Z,103743.61
2019-02-25T19:17:06.931Z,103747.94
2019-02-25T19:19:41.215Z,103746.85
2019-02-25T19:22:15.815Z,103744.25
2019-02-25T19:24:54.617Z,103748.33
2019-02-25T19:27:27.781Z,103746.13
2019-02-25T19:30:02.807Z,103740.16
2019-02-25T19:32:35.921Z,103741.14
2019-02-25T19:35:10.882Z,103735.58
2019-02-25T19:37:44.508Z,103738.38
2019-02-25T19:40:24.434Z,103735.44
2019-02-25T19:42:57.642Z,103724.09
2019-02-25T19:45:30.368Z,103723.54
2019-02-25T19:48:04.666Z,103720.78
2019-02-25T19:50:38.554Z,103710.03
2019-02-25T19:53:12.518Z,103700.28
2019-02-25T19:55:46.181Z,103697.67
2019-02-25T19:58:18.044Z,103700.79
2019-02-25T20:00:52.915Z,103703.41
2019-02-25T20:03:23.614Z,103699.51
2019-02-25T20:05:56.394Z,103699.70
2019-02-25T20:08:28.484Z,103700.41
2019-02-25T20:11:00.722Z,103697.33
2019-02-25T20:13:32.661Z,103691.80
2019-02-25T20:16:07.812Z,103699.72
2019-02-25T20:18:40.322Z,103699.73
2019-02-25T20:21:13.232Z,103700.09
2019-02-25T20:23:47.050Z,103702.62
2019-02-25T20:26:20.046Z,103703.70
2019-02-25T20:28:52.441Z,103700.10
2019-02-25T20:31:24.399Z,103697.95
2019-02-25T20:33:57.365Z,103695.11
2019-02-25T20:36:30.635Z,103698.86
2019-02-25T20:39:04.347Z,103700.09
2019-02-25T20:41:36.597Z,103695.72
2019-02-25T20:44:08.863Z,103690.42
2019-02-25T20:46:40.789Z,103686.69
2019-02-25T20:49:16.124Z,103693.46
2019-02-25T20:51:47.947Z,103699.92
2019-02-25T20:54:21.103Z,103702.84
2019-02-25T20:56:55.369Z,103706.59
2019-02-25T20:59:28.245Z,103714.59
2019-02-25T21:02:00.949Z,103715.33
2019-02-25T21:04:36.504Z,103720.14
2019-02-25T21:07:08.317Z,103717.03
2019-02-25T21:09:42.161Z,103719.56
2019-02-25T21:12:15.678Z,103721.61
2019-02-25T21:14:47.740Z,103723.56
2019-02-25T21:17:19.748Z,103724.55
2019-02-25T21:19:51.874Z,103728.55
2019-02-25T21:22:27.000Z,103732.79
2019-02-25T21:24:58.485Z,103732.08
2019-02-25T21:27:32.511Z,103721.79
2019-02-25T21:30:20.354Z,103724.23
2019-02-25T21:32:54.125Z,103718.05
2019-02-25T21:35:28.241Z,103713.64
2019-02-25T21:37:59.627Z,103716.66
2019-02-25T21:40:32.534Z,103712.74
2019-02-25T21:43:04.551Z,103705.48
2019-02-25T21:45:36.530Z,103710.20
2019-02-25T21:48:08.496Z,103707.52
2019-02-25T21:50:42.601Z,103717.13
2019-02-25T21:53:16.589Z,103711.74
2019-02-25T21:55:51.121Z,103715.48
2019-02-25T21:58:25.229Z,103712.62
2019-02-25T22:00:56.985Z,103695.80
2019-02-25T22:03:28.938Z,103681.56
2019-02-25T22:06:02.620Z,103666.69
2019-02-25T22:08:36.066Z,103650.92
2019-02-25T22:11:13.043Z,103650.03
2019-02-25T22:13:42.196Z,103648.06
2019-02-25T22:16:14.218Z,103644.06
2019-02-25T22:18:48.315Z,103639.41
2019-02-25T22:21:21.184Z,103642.34
2019-02-25T22:23:56.156Z,103638.42
2019-02-25T22:26:29.116Z,103638.66
2019-02-25T22:29:01.950Z,103636.20
2019-02-25T22:31:35.376Z,103648.54
2019-02-25T22:34:08.861Z,103656.30
2019-02-25T22:36:43.771Z,103657.83
2019-02-25T22:39:15.064Z,103651.95
2019-02-25T22:41:48.767Z,103645.52
2019-02-25T22:44:22.607Z,103633.18
2019-02-25T22:46:55.168Z,103635.55
2019-02-25T22:49:28.822Z,103629.25
2019-02-25T22:52:02.804Z,103617.33
2019-02-25T22:54:37.054Z,103604.89
2019-02-25T22:57:08.098Z,103601.14
2019-02-25T22:59:40.066Z,103597.98
2019-02-25T23:02:12.430Z,103596.36
2019-02-25T23:04:45.177Z,103608.50
2019-02-25T23:07:20.050Z,103607.13
2019-02-25T23:09:52.310Z,103607.95
2019-02-25T23:12:27.211Z,103613.25
2019-02-25T23:15:00.947Z,103613.66
2019-02-25T23:17:35.189Z,103617.73
2019-02-25T23:20:11.189Z,103610.72
2019-02-25T23:22:43.200Z,103612.56
2019-02-25T23:25:15.159Z,103612.44
2019-02-25T23:27:47.102Z,103611.12
2019-02-25T23:30:21.357Z,103612.92
2019-02-25T23:32:54.554Z,103606.41
2019-02-25T23:35:27.015Z,103598.40
2019-02-25T23:38:00.854Z,103611.55
2019-02-25T23:40:35.366Z,103616.12
2019-02-25T23:43:07.493Z,103619.80
2019-02-25T23:45:42.128Z,103612.48
2019-02-25T23:48:14.290Z,103613.55
2019-02-25T23:50:47.956Z,103620.81
2019-02-25T23:53:19.887Z,103617.57
2019-02-25T23:55:53.849Z,103614.67
2019-02-25T23:58:25.896Z,103614.10
